createdAt,value
2023-04-05T00:01:14.862Z,8.91
2023-04-05T00:03:44.607Z,8.83
2023-04-05T00:06:16.854Z,8.86
2023-04-05T00:08:50.027Z,8.87
2023-04-05T00:11:18.720Z,8.82
2023-04-05T00:13:46.796Z,8.87
2023-04-05T00:16:15.030Z,8.88
2023-04-05T00:18:50.021Z,8.88
2023-04-05T00:21:18.333Z,8.88
2023-04-05T00:23:46.482Z,8.87
2023-04-05T00:26:14.499Z,8.92
2023-04-05T00:28:48.534Z,8.91
2023-04-05T00:31:16.729Z,8.89
2023-04-05T00:33:46.697Z,8.90
2023-04-05T00:36:16.446Z,8.91
2023-04-05T00:38:45.259Z,8.92
2023-04-05T00:41:13.904Z,8.97
2023-04-05T00:43:42.664Z,8.97
2023-04-05T00:46:10.882Z,8.95
2023-04-05T00:48:39.347Z,8.97
2023-04-05T00:51:11.654Z,8.97
2023-04-05T00:53:40.929Z,8.95
2023-04-05T00:56:10.275Z,8.97
2023-04-05T00:58:38.408Z,8.99
2023-04-05T01:01:18.622Z,8.96
2023-04-05T01:03:52.302Z,8.99
2023-04-05T01:06:27.598Z,9.00
2023-04-05T01:09:01.576Z,8.98
2023-04-05T01:11:32.412Z,8.99
2023-04-05T01:14:00.969Z,9.00
2023-04-05T01:16:29.837Z,9.01
2023-04-05T01:18:58.567Z,9.01
2023-04-05T01:21:43.802Z,9.00
2023-04-05T01:24:18.416Z,9.03
2023-04-05T01:26:57.432Z,9.04
2023-04-05T01:29:44.284Z,9.04
2023-04-05T01:32:19.477Z,9.02
2023-04-05T01:34:51.434Z,8.99
2023-04-05T01:37:21.564Z,9.05
2023-04-05T01:39:50.731Z,9.03
2023-04-05T01:42:24.433Z,9.04
2023-04-05T01:44:52.853Z,9.08
2023-04-05T01:47:23.039Z,9.10
2023-04-05T01:49:51.211Z,9.05
2023-04-05T01:52:19.256Z,9.08
2023-04-05T01:54:47.323Z,9.02
2023-04-05T01:57:15.663Z,9.05
2023-04-05T01:59:43.884Z,9.09
2023-04-05T02:02:12.194Z,9.11
2023-04-05T02:04:42.488Z,9.11
2023-04-05T02:07:11.287Z,9.13
2023-04-05T02:09:39.377Z,9.12
2023-04-05T02:12:07.409Z,9.13
2023-04-05T02:14:35.717Z,9.12
2023-04-05T02:17:03.978Z,9.17
2023-04-05T02:19:40.920Z,9.16
2023-04-05T02:22:10.662Z,9.13
2023-04-05T02:24:38.824Z,9.19
2023-04-05T02:27:07.574Z,9.19
2023-04-05T02:29:36.062Z,9.15
2023-04-05T02:32:04.111Z,9.17
2023-04-05T02:34:33.688Z,9.20
2023-04-05T02:37:02.043Z,9.23
2023-04-05T02:39:31.946Z,9.26
2023-04-05T02:42:00.443Z,9.22
2023-04-05T02:44:28.498Z,9.21
2023-04-05T02:46:57.121Z,9.24
2023-04-05T02:49:30.908Z,9.22
2023-04-05T02:52:01.897Z,9.23
2023-04-05T02:54:31.692Z,9.24
2023-04-05T02:57:03.571Z,9.26
2023-04-05T02:59:41.152Z,9.26
2023-04-05T03:02:10.249Z,9.23
2023-04-05T03:04:38.855Z,9.27
2023-04-05T03:07:08.051Z,9.26
2023-04-05T03:09:41.225Z,9.26
2023-04-05T03:12:11.493Z,9.26
2023-04-05T03:14:42.589Z,9.31
2023-04-05T03:17:14.798Z,9.25
2023-04-05T03:19:46.793Z,9.26
2023-04-05T03:22:19.459Z,9.30
2023-04-05T03:24:49.074Z,9.30
2023-04-05T03:27:19.978Z,9.30
2023-04-05T03:30:17.532Z,9.35
2023-04-05T03:33:01.496Z,9.37
2023-04-05T03:35:43.690Z,9.34
2023-04-05T03:38:13.353Z,9.33
2023-04-05T03:40:57.210Z,9.32
2023-04-05T03:43:26.042Z,9.35
2023-04-05T03:45:54.246Z,9.33
2023-04-05T03:48:22.604Z,9.35
2023-04-05T03:50:51.583Z,9.34
2023-04-05T03:53:22.002Z,9.33
2023-04-05T03:55:55.859Z,9.36
2023-04-05T03:58:48.267Z,9.36
2023-04-05T04:01:18.585Z,9.36
2023-04-05T04:03:46.563Z,9.34
2023-04-05T04:06:17.887Z,9.36
2023-04-05T04:08:47.674Z,9.32
2023-04-05T04:11:16.196Z,9.36
2023-04-05T04:13:44.645Z,9.31
2023-04-05T04:16:33.397Z,9.36
2023-04-05T04:19:20.000Z,9.39
2023-04-05T04:22:10.381Z,9.37
2023-04-05T04:25:18.956Z,9.37
2023-04-05T04:28:19.748Z,9.36
2023-04-05T04:31:21.659Z,9.38
2023-04-05T04:34:14.849Z,9.44
2023-04-05T04:37:04.079Z,9.42
2023-04-05T04:40:04.368Z,9.44
2023-04-05T04:42:44.500Z,9.46
2023-04-05T04:45:38.068Z,9.45
2023-04-05T04:48:26.650Z,9.45
2023-04-05T04:51:14.010Z,9.43
2023-04-05T04:53:42.302Z,9.43
2023-04-05T04:56:10.857Z,9.47
2023-04-05T04:58:39.136Z,9.45
2023-04-05T05:01:10.318Z,9.49
2023-04-05T05:03:39.468Z,9.49
2023-04-05T05:06:08.226Z,9.48
2023-04-05T05:08:38.575Z,9.53
2023-04-05T05:11:07.953Z,9.52
2023-04-05T05:13:36.489Z,9.57
2023-04-05T05:16:05.772Z,9.54
2023-04-05T05:18:33.912Z,9.54
2023-04-05T05:21:02.129Z,9.56
2023-04-05T05:23:30.310Z,9.62
2023-04-05T05:26:02.792Z,9.60
2023-04-05T05:28:31.007Z,9.62
2023-04-05T05:30:59.119Z,9.67
2023-04-05T05:33:27.214Z,9.64
2023-04-05T05:35:55.635Z,9.68
2023-04-05T05:38:23.752Z,9.67
2023-04-05T05:40:56.234Z,9.67
2023-04-05T05:43:25.893Z,9.65
2023-04-05T05:45:53.990Z,9.69
2023-04-05T05:48:22.030Z,9.65
2023-04-05T05:50:50.650Z,9.63
2023-04-05T05:53:19.324Z,9.68
2023-04-05T05:55:47.754Z,9.70
2023-04-05T05:58:17.661Z,9.73
2023-04-05T06:00:49.909Z,9.79
2023-04-05T06:03:19.365Z,9.78
2023-04-05T06:05:52.027Z,9.80
2023-04-05T06:08:20.177Z,9.82
2023-04-05T06:10:48.345Z,9.83
2023-04-05T06:13:16.416Z,9.86
2023-04-05T06:15:44.570Z,9.85
2023-04-05T06:18:14.706Z,9.80
2023-04-05T06:20:44.655Z,9.80
2023-04-05T06:23:12.827Z,9.83
2023-04-05T06:25:41.280Z,9.79
2023-04-05T06:28:09.519Z,9.80
2023-04-05T06:30:37.759Z,9.84
2023-04-05T06:33:06.434Z,9.81
2023-04-05T06:35:36.317Z,9.84
2023-04-05T06:38:04.470Z,9.86
2023-04-05T06:40:32.485Z,9.83
2023-04-05T06:43:00.657Z,9.86
2023-04-05T06:45:32.167Z,9.89
2023-04-05T06:48:00.679Z,9.91
2023-04-05T06:50:29.374Z,9.96
2023-04-05T06:52:59.110Z,9.96
2023-04-05T06:55:27.775Z,10.01
2023-04-05T06:57:55.817Z,9.97
2023-04-05T07:00:24.070Z,9.99
2023-04-05T07:02:52.500Z,10.02
2023-04-05T07:05:20.694Z,10.02
2023-04-05T07:07:49.036Z,10.05
2023-04-05T07:10:18.750Z,10.07
2023-04-05T07:12:46.978Z,10.07
2023-04-05T07:15:15.221Z,10.14
2023-04-05T07:17:43.393Z,10.17
2023-04-05T07:20:12.526Z,10.18
2023-04-05T07:22:40.658Z,10.15
2023-04-05T07:25:10.610Z,10.21
2023-04-05T07:27:40.845Z,10.20
2023-04-05T07:30:09.791Z,10.17
2023-04-05T07:32:38.007Z,10.25
2023-04-05T07:35:06.961Z,10.27
2023-04-05T07:37:35.002Z,10.30
2023-04-05T07:40:03.823Z,10.32
2023-04-05T07:42:32.168Z,10.29
2023-04-05T07:45:01.774Z,10.27
2023-04-05T07:47:29.927Z,10.32
2023-04-05T07:49:58.190Z,10.34
2023-04-05T07:52:26.348Z,10.36
2023-04-05T07:54:54.906Z,10.37
2023-04-05T07:57:23.070Z,10.37
2023-04-05T07:59:52.830Z,10.42
2023-04-05T08:02:22.746Z,10.47
2023-04-05T08:04:51.063Z,10.47
2023-04-05T08:07:19.330Z,10.56
2023-04-05T08:09:47.339Z,10.57
2023-04-05T08:12:15.559Z,10.59
2023-04-05T08:14:43.950Z,10.63
2023-04-05T08:17:12.138Z,10.68
2023-04-05T08:19:42.417Z,10.66
2023-04-05T08:22:10.433Z,10.71
2023-04-05T08:24:38.473Z,10.73
2023-04-05T08:27:06.560Z,10.73
2023-04-05T08:29:34.711Z,10.85
2023-04-05T08:32:02.973Z,10.87
2023-04-05T08:34:31.465Z,10.87
2023-04-05T08:37:01.540Z,10.95
2023-04-05T08:39:29.702Z,10.95
2023-04-05T08:42:03.592Z,10.99
2023-04-05T08:44:32.354Z,10.98
2023-04-05T08:47:01.167Z,10.99
2023-04-05T08:49:29.552Z,10.98
2023-04-05T08:51:57.841Z,10.98
2023-04-05T08:54:27.637Z,11.06
2023-04-05T08:56:56.685Z,11.08
2023-04-05T08:59:25.612Z,11.14
2023-04-05T09:01:54.020Z,11.23
2023-04-05T09:04:23.467Z,11.29
2023-04-05T09:06:53.143Z,11.32
2023-04-05T09:09:22.170Z,11.42
2023-04-05T09:11:51.972Z,11.41
2023-04-05T09:14:20.904Z,11.43
2023-04-05T09:16:49.397Z,11.44
2023-04-05T09:19:18.994Z,11.52
2023-04-05T09:22:00.661Z,11.58
2023-04-05T09:24:33.345Z,11.58
2023-04-05T09:27:16.159Z,11.57
2023-04-05T09:29:48.425Z,11.67
2023-04-05T09:32:18.458Z,11.58
2023-04-05T09:34:47.644Z,11.64
2023-04-05T09:37:23.416Z,11.60
2023-04-05T09:39:52.702Z,11.70
2023-04-05T09:42:24.145Z,11.75
2023-04-05T09:44:56.341Z,11.84
2023-04-05T09:47:27.766Z,11.95
2023-04-05T09:49:59.556Z,12.04
2023-04-05T09:52:28.946Z,12.15
2023-04-05T09:54:58.145Z,12.07
2023-04-05T09:57:29.690Z,12.07
2023-04-05T09:59:57.897Z,12.01
2023-04-05T10:02:27.312Z,11.92
2023-04-05T10:04:55.454Z,11.92
2023-04-05T10:07:23.598Z,11.92
2023-04-05T10:09:51.785Z,11.87
2023-04-05T10:12:25.474Z,11.89
2023-04-05T10:14:54.989Z,11.87
2023-04-05T10:17:25.789Z,11.91
2023-04-05T10:19:58.577Z,11.87
2023-04-05T10:22:30.919Z,11.87
2023-04-05T10:25:01.574Z,11.83
2023-04-05T10:27:32.521Z,11.79
2023-04-05T10:30:06.640Z,11.78
2023-04-05T10:32:38.829Z,11.81
2023-04-05T10:35:11.222Z,11.79
2023-04-05T10:37:43.946Z,11.86
2023-04-05T10:40:14.654Z,11.92
2023-04-05T10:42:44.472Z,11.96
2023-04-05T10:45:18.198Z,11.96
2023-04-05T10:47:50.292Z,12.01
2023-04-05T10:50:22.998Z,12.09
2023-04-05T10:52:52.354Z,12.20
2023-04-05T10:55:20.718Z,12.20
2023-04-05T10:57:50.591Z,12.26
2023-04-05T11:00:21.048Z,12.38
2023-04-05T11:02:50.266Z,12.37
2023-04-05T11:05:32.581Z,12.38
2023-04-05T11:08:01.801Z,12.45
2023-04-05T11:10:30.412Z,12.56
2023-04-05T11:13:09.282Z,12.60
2023-04-05T11:15:39.191Z,12.64
2023-04-05T11:18:11.553Z,12.70
2023-04-05T11:20:44.144Z,12.65
2023-04-05T11:23:13.258Z,12.66
2023-04-05T11:25:42.347Z,12.57
2023-04-05T11:28:10.696Z,12.47
2023-04-05T11:30:51.643Z,12.53
2023-04-05T11:33:38.582Z,12.61
2023-04-05T11:36:07.112Z,12.72
2023-04-05T11:38:35.539Z,12.76
2023-04-05T11:41:07.774Z,12.81
2023-04-05T11:43:38.386Z,12.92
2023-04-05T11:46:08.270Z,12.98
2023-04-05T11:48:37.074Z,13.16
2023-04-05T11:51:08.562Z,13.18
2023-04-05T11:53:36.748Z,13.07
2023-04-05T11:56:08.780Z,13.05
2023-04-05T11:58:38.080Z,13.20
2023-04-05T12:01:08.363Z,13.24
2023-04-05T12:03:36.927Z,13.20
2023-04-05T12:06:06.389Z,13.24
2023-04-05T12:08:42.492Z,13.29
2023-04-05T12:11:11.758Z,13.26
2023-04-05T12:13:40.692Z,13.25
2023-04-05T12:16:11.052Z,13.32
2023-04-05T12:18:39.682Z,13.30
2023-04-05T12:21:09.247Z,13.32
2023-04-05T12:23:38.516Z,13.17
2023-04-05T12:26:08.306Z,13.23
2023-04-05T12:28:52.790Z,13.28
2023-04-05T12:31:36.364Z,13.30
2023-04-05T12:34:06.560Z,13.28
2023-04-05T12:36:34.974Z,13.26
2023-04-05T12:39:07.761Z,13.32
2023-04-05T12:41:37.270Z,13.41
2023-04-05T12:44:06.795Z,13.34
2023-04-05T12:46:41.737Z,13.39
2023-04-05T12:49:13.848Z,13.47
2023-04-05T12:51:46.302Z,13.53
2023-04-05T12:54:15.637Z,13.55
2023-04-05T12:56:43.756Z,13.62
2023-04-05T12:59:12.385Z,13.63
2023-04-05T13:01:40.807Z,13.55
2023-04-05T13:04:16.050Z,13.70
2023-04-05T13:06:47.930Z,13.75
2023-04-05T13:09:16.507Z,13.68
2023-04-05T13:11:44.565Z,13.73
2023-04-05T13:14:12.647Z,13.75
2023-04-05T13:16:40.726Z,13.80
2023-04-05T13:19:08.860Z,13.79
2023-04-05T13:21:37.224Z,13.90
2023-04-05T13:24:07.418Z,13.97
2023-04-05T13:26:36.030Z,13.91
2023-04-05T13:29:05.556Z,13.94
2023-04-05T13:31:33.947Z,14.08
2023-04-05T13:34:02.224Z,14.18
2023-04-05T13:36:31.235Z,14.04
2023-04-05T13:38:59.635Z,14.05
2023-04-05T13:41:29.084Z,14.02
2023-04-05T13:43:57.744Z,13.88
2023-04-05T13:46:26.981Z,13.95
2023-04-05T13:48:55.007Z,13.99
2023-04-05T13:51:23.365Z,13.83
2023-04-05T13:53:51.393Z,13.55
2023-04-05T13:56:19.377Z,13.64
2023-04-05T13:58:48.943Z,13.42
2023-04-05T14:01:17.311Z,13.47
2023-04-05T14:03:45.606Z,13.19
2023-04-05T14:06:14.147Z,13.24
2023-04-05T14:08:42.345Z,13.12
2023-04-05T14:11:10.502Z,12.94
2023-04-05T14:13:38.943Z,12.94
2023-04-05T14:16:09.620Z,12.90
2023-04-05T14:18:37.758Z,12.94
2023-04-05T14:21:05.827Z,12.98
2023-04-05T14:23:33.980Z,12.87
2023-04-05T14:26:02.412Z,12.84
2023-04-05T14:28:31.057Z,12.81
2023-04-05T14:30:59.855Z,12.80
2023-04-05T14:33:29.326Z,12.84
2023-04-05T14:35:57.498Z,12.84
2023-04-05T14:38:26.217Z,12.80
2023-04-05T14:40:54.257Z,12.82
2023-04-05T14:43:31.176Z,12.72
2023-04-05T14:45:59.731Z,12.72
2023-04-05T14:48:30.491Z,12.68
2023-04-05T14:50:58.833Z,12.78
2023-04-05T14:53:27.035Z,12.87
2023-04-05T14:55:55.311Z,12.92
2023-04-05T14:58:23.630Z,13.14
2023-04-05T15:00:52.137Z,13.27
2023-04-05T15:03:20.344Z,13.43
2023-04-05T15:05:50.115Z,13.56
2023-04-05T15:08:18.168Z,13.74
2023-04-05T15:10:46.571Z,13.88
2023-04-05T15:13:15.202Z,13.72
2023-04-05T15:15:43.302Z,13.60
2023-04-05T15:18:11.668Z,13.60
2023-04-05T15:20:39.865Z,13.47
2023-04-05T15:23:09.666Z,13.44
2023-04-05T15:25:37.766Z,13.53
2023-04-05T15:28:07.037Z,13.59
2023-04-05T15:30:35.367Z,13.75
2023-04-05T15:33:03.701Z,13.83
2023-04-05T15:35:33.705Z,13.92
2023-04-05T15:38:01.973Z,13.84
2023-04-05T15:40:31.566Z,13.79
2023-04-05T15:43:00.150Z,13.84
2023-04-05T15:45:28.494Z,13.85
2023-04-05T15:47:56.629Z,13.89
2023-04-05T15:50:24.692Z,13.96
2023-04-05T15:52:53.109Z,13.94
2023-04-05T15:55:21.344Z,13.90
2023-04-05T15:57:54.736Z,13.91
2023-04-05T16:00:23.189Z,14.03
2023-04-05T16:02:52.857Z,14.05
2023-04-05T16:05:23.197Z,14.17
2023-04-05T16:07:51.663Z,14.21
2023-04-05T16:10:19.732Z,14.27
2023-04-05T16:12:47.817Z,14.32
2023-04-05T16:15:17.712Z,14.35
2023-04-05T16:17:45.784Z,14.31
2023-04-05T16:20:13.953Z,14.24
2023-04-05T16:22:42.427Z,14.28
2023-04-05T16:25:10.445Z,14.18
2023-04-05T16:27:38.897Z,14.22
2023-04-05T16:30:07.694Z,14.28
2023-04-05T16:32:37.203Z,14.22
2023-04-05T16:35:06.109Z,14.29
2023-04-05T16:37:34.245Z,14.11
2023-04-05T16:40:03.109Z,14.08
2023-04-05T16:42:31.332Z,14.17
2023-04-05T16:44:59.398Z,14.12
2023-04-05T16:47:27.445Z,14.21
2023-04-05T16:49:57.000Z,14.41
2023-04-05T16:52:25.265Z,14.46
2023-04-05T16:54:53.519Z,14.57
2023-04-05T16:57:21.721Z,14.47
2023-04-05T16:59:49.760Z,14.30
2023-04-05T17:02:18.149Z,14.23
2023-04-05T17:04:46.598Z,14.05
2023-04-05T17:07:16.191Z,13.97
2023-04-05T17:09:45.127Z,13.92
2023-04-05T17:12:13.845Z,13.99
2023-04-05T17:14:41.907Z,13.92
2023-04-05T17:17:10.057Z,13.80
2023-04-05T17:19:39.034Z,13.79
2023-04-05T17:22:07.269Z,13.82
2023-04-05T17:24:37.312Z,13.89
2023-04-05T17:27:06.152Z,13.79
2023-04-05T17:29:34.222Z,13.74
2023-04-05T17:32:03.883Z,13.57
2023-04-05T17:34:32.650Z,13.58
2023-04-05T17:37:00.930Z,13.43
2023-04-05T17:39:29.130Z,13.42
2023-04-05T17:41:58.928Z,13.29
2023-04-05T17:44:27.453Z,13.35
2023-04-05T17:47:08.061Z,12.92
2023-04-05T17:49:38.037Z,12.82
2023-04-05T17:52:08.922Z,12.51
2023-04-05T17:54:38.645Z,12.54
2023-04-05T17:57:15.753Z,12.33
2023-04-05T17:59:45.370Z,12.25
2023-04-05T18:02:14.647Z,12.05
2023-04-05T18:04:42.824Z,12.06
2023-04-05T18:07:11.901Z,12.09
2023-04-05T18:09:42.399Z,12.06
2023-04-05T18:12:13.556Z,12.06
2023-04-05T18:14:43.762Z,11.96
2023-04-05T18:17:13.443Z,11.93
2023-04-05T18:19:42.372Z,11.83
2023-04-05T18:22:10.657Z,11.83
2023-04-05T18:24:40.679Z,11.84
2023-04-05T18:27:11.683Z,11.74
2023-04-05T18:29:41.535Z,11.78
2023-04-05T18:32:10.193Z,11.85
2023-04-05T18:34:38.323Z,11.68
2023-04-05T18:37:06.387Z,11.81
2023-04-05T18:39:34.603Z,11.82
2023-04-05T18:42:03.217Z,11.72
2023-04-05T18:44:31.639Z,11.82
2023-04-05T18:47:01.298Z,11.79
2023-04-05T18:49:29.416Z,11.77
2023-04-05T18:51:57.748Z,11.74
2023-04-05T18:54:25.950Z,11.76
2023-04-05T18:56:54.049Z,11.68
2023-04-05T18:59:22.439Z,11.72
2023-04-05T19:01:50.822Z,11.70
2023-04-05T19:04:20.374Z,11.69
2023-04-05T19:06:48.778Z,11.66
2023-04-05T19:09:18.310Z,11.62
2023-04-05T19:11:46.348Z,11.57
2023-04-05T19:14:14.501Z,11.58
2023-04-05T19:16:42.825Z,11.56
2023-04-05T19:19:10.897Z,11.54
2023-04-05T19:21:40.660Z,11.51
2023-04-05T19:24:09.961Z,11.43
2023-04-05T19:26:38.088Z,11.44
2023-04-05T19:29:07.091Z,11.40
2023-04-05T19:31:37.129Z,11.36
2023-04-05T19:34:07.230Z,11.33
2023-04-05T19:36:35.624Z,11.26
2023-04-05T19:39:05.325Z,11.14
2023-04-05T19:41:34.162Z,11.00
2023-04-05T19:44:02.506Z,11.01
2023-04-05T19:46:31.222Z,11.00
2023-04-05T19:49:11.542Z,10.94
2023-04-05T19:51:40.826Z,10.86
2023-04-05T19:54:15.184Z,10.83
2023-04-05T19:56:45.365Z,10.79
2023-04-05T19:59:29.364Z,10.76
2023-04-05T20:01:58.983Z,10.74
2023-04-05T20:04:29.381Z,10.74
2023-04-05T20:06:58.281Z,10.65
2023-04-05T20:09:29.903Z,10.61
2023-04-05T20:11:59.397Z,10.59
2023-04-05T20:14:29.151Z,10.54
2023-04-05T20:16:57.636Z,10.45
2023-04-05T20:19:28.656Z,10.44
2023-04-05T20:21:58.349Z,10.44
2023-04-05T20:24:27.899Z,10.41
2023-04-05T20:26:58.505Z,10.35
2023-04-05T20:29:28.348Z,10.33
2023-04-05T20:31:56.735Z,10.31
2023-04-05T20:34:28.220Z,10.17
2023-04-05T20:36:58.064Z,10.24
2023-04-05T20:39:26.910Z,10.20
2023-04-05T20:41:55.705Z,10.19
2023-04-05T20:44:25.340Z,10.13
2023-04-05T20:46:54.816Z,10.10
2023-04-05T20:49:23.869Z,10.10
2023-04-05T20:51:54.869Z,10.08
2023-04-05T20:54:23.090Z,10.03
2023-04-05T20:56:51.378Z,10.04
2023-04-05T20:59:19.545Z,10.03
2023-04-05T21:01:49.289Z,10.01
2023-04-05T21:04:17.781Z,9.89
2023-04-05T21:06:46.205Z,9.92
2023-04-05T21:09:14.349Z,9.91
2023-04-05T21:11:42.343Z,9.86
2023-04-05T21:14:10.390Z,9.76
2023-04-05T21:16:38.650Z,9.67
2023-04-05T21:19:08.371Z,9.73
2023-04-05T21:21:36.767Z,9.68
2023-04-05T21:24:05.394Z,9.61
2023-04-05T21:26:33.431Z,9.62
2023-04-05T21:29:01.553Z,9.62
2023-04-05T21:31:29.926Z,9.47
2023-04-05T21:33:58.120Z,9.44
2023-04-05T21:36:27.701Z,9.41
2023-04-05T21:38:56.041Z,9.36
2023-04-05T21:41:24.270Z,9.27
2023-04-05T21:43:52.447Z,9.15
2023-04-05T21:46:20.873Z,9.05
2023-04-05T21:48:49.029Z,9.07
2023-04-05T21:51:17.393Z,9.02
2023-04-05T21:53:48.078Z,8.95
2023-04-05T21:56:16.492Z,8.82
2023-04-05T21:58:44.512Z,8.71
2023-04-05T22:01:13.030Z,8.67
2023-04-05T22:03:41.315Z,8.63
2023-04-05T22:06:09.911Z,8.61
2023-04-05T22:08:38.260Z,8.57
2023-04-05T22:11:08.235Z,8.54
2023-04-05T22:13:36.330Z,8.51
2023-04-05T22:16:04.731Z,8.58
2023-04-05T22:18:33.124Z,8.54
2023-04-05T22:21:01.340Z,8.54
2023-04-05T22:23:29.489Z,8.54
2023-04-05T22:25:57.598Z,8.48
2023-04-05T22:28:27.348Z,8.43
2023-04-05T22:30:56.235Z,8.28
2023-04-05T22:33:24.684Z,8.27
2023-04-05T22:35:52.972Z,8.16
2023-04-05T22:38:21.438Z,8.07
2023-04-05T22:40:49.771Z,8.04
2023-04-05T22:43:18.811Z,7.96
2023-04-05T22:45:52.142Z,7.87
2023-04-05T22:48:20.658Z,7.83
2023-04-05T22:50:48.779Z,7.71
2023-04-05T22:53:16.800Z,7.79
2023-04-05T22:55:44.974Z,7.69
2023-04-05T22:58:13.717Z,7.76
2023-04-05T23:00:41.917Z,7.75
2023-04-05T23:03:12.078Z,7.71
2023-04-05T23:05:40.434Z,7.73
2023-04-05T23:08:08.581Z,7.67
2023-04-05T23:10:36.744Z,7.68
2023-04-05T23:13:04.856Z,7.68
2023-04-05T23:15:33.091Z,7.60
2023-04-05T23:18:01.274Z,7.69
2023-04-05T23:20:30.718Z,7.66
2023-04-05T23:22:58.767Z,7.69
2023-04-05T23:25:26.732Z,7.69
2023-04-05T23:27:55.003Z,7.67
2023-04-05T23:30:23.048Z,7.69
2023-04-05T23:32:51.461Z,7.68
2023-04-05T23:35:19.534Z,7.70
2023-04-05T23:37:49.149Z,7.71
2023-04-05T23:40:17.233Z,7.68
2023-04-05T23:42:45.743Z,7.71
2023-04-05T23:45:14.109Z,7.68
2023-04-05T23:47:42.453Z,7.66
2023-04-05T23:50:11.533Z,7.64
2023-04-05T23:52:39.651Z,7.61
2023-04-05T23:55:10.099Z,7.60
2023-04-05T23:57:38.176Z,7.57
